sensor_id;sensor_type;location;lat;lon;timestamp;P1;durP1;ratioP1;P2;durP2;ratioP2
33644;SDS011;19986;48.190;16.366;2023-01-19T05:06:41;49.92;;;47.22;;
33644;SDS011;19986;48.190;16.366;2023-01-19T05:09:07;53.20;;;50.17;;
33644;SDS011;19986;48.190;16.366;2023-01-19T05:11:35;48.10;;;45.50;;
33644;SDS011;19986;48.190;16.366;2023-01-19T05:14:01;51.45;;;48.55;;
33644;SDS011;19986;48.190;16.366;2023-01-19T05:16:27;51.90;;;48.90;;
33644;SDS011;19986;48.190;16.366;2023-01-19T05:18:53;53.55;;;50.60;;
33644;SDS011;19986;48.190;16.366;2023-01-19T05:21:19;50.75;;;47.92;;
33644;SDS011;19986;48.190;16.366;2023-01-19T05:23:45;51.45;;;48.58;;
33644;SDS011;19986;48.190;16.366;2023-01-19T05:26:11;52.85;;;49.85;;
33644;SDS011;19986;48.190;16.366;2023-01-19T05:28:36;51.10;;;48.00;;
33644;SDS011;19986;48.190;16.366;2023-01-19T05:31:03;50.92;;;47.85;;
33644;SDS011;19986;48.190;16.366;2023-01-19T05:33:28;51.38;;;48.42;;
33644;SDS011;19986;48.190;16.366;2023-01-19T05:35:54;53.25;;;50.25;;
33644;SDS011;19986;48.190;16.366;2023-01-19T05:38:21;51.42;;;48.13;;
33644;SDS011;19986;48.190;16.366;2023-01-19T05:40:48;57.10;;;53.88;;
33644;SDS011;19986;48.190;16.366;2023-01-19T05:43:14;51.58;;;48.63;;
33644;SDS011;19986;48.190;16.366;2023-01-19T05:45:40;52.63;;;49.58;;
33644;SDS011;19986;48.190;16.366;2023-01-19T05:48:09;54.90;;;51.72;;
33644;SDS011;19986;48.190;16.366;2023-01-19T05:50:35;52.88;;;49.78;;
33644;SDS011;19986;48.190;16.366;2023-01-19T05:53:01;53.75;;;50.38;;
33644;SDS011;19986;48.190;16.366;2023-01-19T05:55:27;56.13;;;52.90;;
33644;SDS011;19986;48.190;16.366;2023-01-19T05:57:53;53.08;;;50.08;;
33644;SDS011;19986;48.190;16.366;2023-01-19T06:00:19;54.45;;;51.15;;
33644;SDS011;19986;48.190;16.366;2023-01-19T06:02:45;52.20;;;49.13;;
33644;SDS011;19986;48.190;16.366;2023-01-19T06:05:14;55.72;;;52.53;;
33644;SDS011;19986;48.190;16.366;2023-01-19T06:07:40;51.22;;;48.22;;
33644;SDS011;19986;48.190;16.366;2023-01-19T06:10:06;53.22;;;50.15;;
33644;SDS011;19986;48.190;16.366;2023-01-19T06:12:33;54.20;;;51.08;;
33644;SDS011;19986;48.190;16.366;2023-01-19T06:14:58;54.30;;;51.10;;
33644;SDS011;19986;48.190;16.366;2023-01-19T06:17:25;53.60;;;50.50;;
33644;SDS011;19986;48.190;16.366;2023-01-19T06:19:50;55.47;;;52.17;;
33644;SDS011;19986;48.190;16.366;2023-01-19T06:22:16;53.63;;;50.42;;
33644;SDS011;19986;48.190;16.366;2023-01-19T06:24:42;52.47;;;49.45;;
33644;SDS011;19986;48.190;16.366;2023-01-19T06:27:08;52.75;;;49.45;;
33644;SDS011;19986;48.190;16.366;2023-01-19T06:29:35;52.20;;;49.00;;
33644;SDS011;19986;48.190;16.366;2023-01-19T06:32:01;55.60;;;52.42;;
33644;SDS011;19986;48.190;16.366;2023-01-19T06:34:27;54.72;;;51.60;;
33644;SDS011;19986;48.190;16.366;2023-01-19T06:36:54;53.83;;;50.60;;
33644;SDS011;19986;48.190;16.366;2023-01-19T06:39:20;53.42;;;49.92;;
33644;SDS011;19986;48.190;16.366;2023-01-19T06:41:46;51.65;;;48.13;;
33644;SDS011;19986;48.190;16.366;2023-01-19T06:44:12;54.30;;;51.08;;
33644;SDS011;19986;48.190;16.366;2023-01-19T06:46:38;52.97;;;49.83;;
33644;SDS011;19986;48.190;16.366;2023-01-19T06:49:04;53.83;;;50.60;;
33644;SDS011;19986;48.190;16.366;2023-01-19T06:51:30;55.88;;;52.58;;
33644;SDS011;19986;48.190;16.366;2023-01-19T06:53:55;54.90;;;51.60;;
33644;SDS011;19986;48.190;16.366;2023-01-19T06:56:22;55.00;;;51.60;;
33644;SDS011;19986;48.190;16.366;2023-01-19T06:58:47;53.40;;;50.17;;
33644;SDS011;19986;48.190;16.366;2023-01-19T07:01:14;52.17;;;48.92;;
33644;SDS011;19986;48.190;16.366;2023-01-19T07:03:40;53.72;;;50.60;;
33644;SDS011;19986;48.190;16.366;2023-01-19T07:06:06;51.08;;;48.17;;
33644;SDS011;19986;48.190;16.366;2023-01-19T07:08:33;53.17;;;49.90;;
33644;SDS011;19986;48.190;16.366;2023-01-19T07:11:00;56.55;;;53.10;;
33644;SDS011;19986;48.190;16.366;2023-01-19T07:13:31;52.60;;;49.50;;
33644;SDS011;19986;48.190;16.366;2023-01-19T07:15:58;51.88;;;48.63;;
33644;SDS011;19986;48.190;16.366;2023-01-19T07:18:27;53.85;;;50.70;;
33644;SDS011;19986;48.190;16.366;2023-01-19T07:20:55;52.35;;;49.20;;
33644;SDS011;19986;48.190;16.366;2023-01-19T07:23:24;52.00;;;48.92;;
33644;SDS011;19986;48.190;16.366;2023-01-19T07:25:50;51.53;;;48.53;;
33644;SDS011;19986;48.190;16.366;2023-01-19T07:28:16;52.17;;;49.17;;
33644;SDS011;19986;48.190;16.366;2023-01-19T07:30:43;56.47;;;52.42;;
33644;SDS011;19986;48.190;16.366;2023-01-19T07:33:10;49.72;;;47.05;;
33644;SDS011;19986;48.190;16.366;2023-01-19T07:35:36;53.95;;;50.67;;
33644;SDS011;19986;48.190;16.366;2023-01-19T07:38:02;51.05;;;48.17;;
33644;SDS011;19986;48.190;16.366;2023-01-19T07:40:28;51.17;;;48.08;;
33644;SDS011;19986;48.190;16.366;2023-01-19T07:42:54;51.25;;;48.25;;
33644;SDS011;19986;48.190;16.366;2023-01-19T07:45:20;55.03;;;51.78;;
33644;SDS011;19986;48.190;16.366;2023-01-19T07:47:47;51.78;;;48.78;;
33644;SDS011;19986;48.190;16.366;2023-01-19T07:50:14;48.55;;;45.75;;
33644;SDS011;19986;48.190;16.366;2023-01-19T07:52:41;51.45;;;48.35;;
33644;SDS011;19986;48.190;16.366;2023-01-19T07:55:07;51.55;;;48.38;;
33644;SDS011;19986;48.190;16.366;2023-01-19T07:57:33;51.28;;;48.28;;
33644;SDS011;19986;48.190;16.366;2023-01-19T07:59:59;52.47;;;49.38;;
33644;SDS011;19986;48.190;16.366;2023-01-19T08:02:25;53.65;;;50.53;;
33644;SDS011;19986;48.190;16.366;2023-01-19T08:04:52;51.22;;;48.03;;
33644;SDS011;19986;48.190;16.366;2023-01-19T08:07:17;51.90;;;48.70;;
33644;SDS011;19986;48.190;16.366;2023-01-19T08:09:43;51.38;;;48.38;;
33644;SDS011;19986;48.190;16.366;2023-01-19T08:12:09;50.88;;;47.67;;
33644;SDS011;19986;48.190;16.366;2023-01-19T08:14:35;53.20;;;50.15;;
33644;SDS011;19986;48.190;16.366;2023-01-19T08:17:01;54.70;;;51.40;;
33644;SDS011;19986;48.190;16.366;2023-01-19T08:19:28;53.45;;;50.35;;
33644;SDS011;19986;48.190;16.366;2023-01-19T08:21:54;54.65;;;51.55;;
33644;SDS011;19986;48.190;16.366;2023-01-19T08:24:21;54.30;;;51.13;;
33644;SDS011;19986;48.190;16.366;2023-01-19T08:26:49;53.63;;;50.53;;
33644;SDS011;19986;48.190;16.366;2023-01-19T08:29:22;52.85;;;49.75;;
33644;SDS011;19986;48.190;16.366;2023-01-19T08:31:48;50.10;;;47.00;;
33644;SDS011;19986;48.190;16.366;2023-01-19T08:34:14;52.03;;;48.90;;
33644;SDS011;19986;48.190;16.366;2023-01-19T08:36:40;50.30;;;47.30;;
33644;SDS011;19986;48.190;16.366;2023-01-19T08:39:06;50.58;;;47.50;;
33644;SDS011;19986;48.190;16.366;2023-01-19T08:41:32;51.47;;;48.67;;
33644;SDS011;19986;48.190;16.366;2023-01-19T08:43:58;52.88;;;49.78;;
33644;SDS011;19986;48.190;16.366;2023-01-19T08:46:23;50.95;;;47.95;;
33644;SDS011;19986;48.190;16.366;2023-01-19T08:48:49;49.17;;;46.17;;
33644;SDS011;19986;48.190;16.366;2023-01-19T08:51:15;54.60;;;51.20;;
33644;SDS011;19986;48.190;16.366;2023-01-19T08:53:42;55.08;;;51.72;;
33644;SDS011;19986;48.190;16.366;2023-01-19T08:56:08;53.45;;;50.35;;
33644;SDS011;19986;48.190;16.366;2023-01-19T08:58:40;50.70;;;47.90;;
33644;SDS011;19986;48.190;16.366;2023-01-19T09:01:07;49.38;;;46.58;;
33644;SDS011;19986;48.190;16.366;2023-01-19T09:03:35;53.25;;;50.22;;
33644;SDS011;19986;48.190;16.366;2023-01-19T09:06:04;52.83;;;49.70;;
33644;SDS011;19986;48.190;16.366;2023-01-19T09:08:33;51.83;;;48.85;;
33644;SDS011;19986;48.190;16.366;2023-01-19T09:11:00;52.17;;;49.22;;
33644;SDS011;19986;48.190;16.366;2023-01-19T09:13:26;51.08;;;48.08;;
33644;SDS011;19986;48.190;16.366;2023-01-19T09:15:52;52.05;;;49.05;;
33644;SDS011;19986;48.190;16.366;2023-01-19T09:18:19;50.67;;;47.72;;
33644;SDS011;19986;48.190;16.366;2023-01-19T09:20:46;51.65;;;48.58;;
33644;SDS011;19986;48.190;16.366;2023-01-19T09:23:14;49.72;;;46.83;;
33644;SDS011;19986;48.190;16.366;2023-01-19T09:25:43;50.17;;;47.38;;
33644;SDS011;19986;48.190;16.366;2023-01-19T09:28:11;51.08;;;48.28;;
33644;SDS011;19986;48.190;16.366;2023-01-19T09:30:39;49.20;;;46.50;;
33644;SDS011;19986;48.190;16.366;2023-01-19T09:33:08;52.13;;;49.33;;
33644;SDS011;19986;48.190;16.366;2023-01-19T09:35:37;50.35;;;47.55;;
33644;SDS011;19986;48.190;16.366;2023-01-19T09:38:04;49.03;;;46.33;;
33644;SDS011;19986;48.190;16.366;2023-01-19T09:40:31;52.30;;;49.13;;
33644;SDS011;19986;48.190;16.366;2023-01-19T09:43:01;51.42;;;48.72;;
33644;SDS011;19986;48.190;16.366;2023-01-19T09:45:52;50.30;;;47.67;;
33644;SDS011;19986;48.190;16.366;2023-01-19T09:56:31;52.85;;;49.90;;
33644;SDS011;19986;48.190;16.366;2023-01-19T09:58:58;51.08;;;48.30;;
33644;SDS011;19986;48.190;16.366;2023-01-19T10:06:47;48.38;;;45.67;;
33644;SDS011;19986;48.190;16.366;2023-01-19T10:12:07;49.58;;;46.78;;
33644;SDS011;19986;48.190;16.366;2023-01-19T10:14:56;47.72;;;45.33;;
33644;SDS011;19986;48.190;16.366;2023-01-19T10:17:44;49.80;;;47.17;;
33644;SDS011;19986;48.190;16.366;2023-01-19T10:20:18;46.63;;;44.15;;
33644;SDS011;19986;48.190;16.366;2023-01-19T10:22:54;50.92;;;48.10;;
33644;SDS011;19986;48.190;16.366;2023-01-19T10:25:23;47.80;;;45.22;;
33644;SDS011;19986;48.190;16.366;2023-01-19T10:27:49;49.25;;;46.67;;
33644;SDS011;19986;48.190;16.366;2023-01-19T10:30:17;49.78;;;46.97;;
33644;SDS011;19986;48.190;16.366;2023-01-19T10:32:47;49.20;;;46.50;;
33644;SDS011;19986;48.190;16.366;2023-01-19T10:35:15;49.03;;;46.42;;
33644;SDS011;19986;48.190;16.366;2023-01-19T10:37:47;53.35;;;50.33;;
33644;SDS011;19986;48.190;16.366;2023-01-19T10:40:21;51.58;;;48.78;;
33644;SDS011;19986;48.190;16.366;2023-01-19T10:42:51;49.33;;;46.58;;
33644;SDS011;19986;48.190;16.366;2023-01-19T10:47:49;50.72;;;47.97;;
33644;SDS011;19986;48.190;16.366;2023-01-19T10:50:26;47.42;;;44.72;;
33644;SDS011;19986;48.190;16.366;2023-01-19T10:52:55;49.15;;;46.47;;
33644;SDS011;19986;48.190;16.366;2023-01-19T10:55:40;50.90;;;47.88;;
33644;SDS011;19986;48.190;16.366;2023-01-19T10:58:07;53.03;;;50.03;;
33644;SDS011;19986;48.190;16.366;2023-01-19T11:00:52;49.22;;;46.42;;
33644;SDS011;19986;48.190;16.366;2023-01-19T11:03:28;50.03;;;47.15;;
33644;SDS011;19986;48.190;16.366;2023-01-19T11:08:46;49.30;;;46.63;;
33644;SDS011;19986;48.190;16.366;2023-01-19T11:11:15;50.22;;;47.53;;
33644;SDS011;19986;48.190;16.366;2023-01-19T11:13:42;46.90;;;44.38;;
33644;SDS011;19986;48.190;16.366;2023-01-19T11:16:23;44.80;;;42.40;;
33644;SDS011;19986;48.190;16.366;2023-01-19T11:18:52;47.45;;;44.95;;
33644;SDS011;19986;48.190;16.366;2023-01-19T11:21:21;47.28;;;44.88;;
33644;SDS011;19986;48.190;16.366;2023-01-19T11:23:49;45.28;;;42.72;;
33644;SDS011;19986;48.190;16.366;2023-01-19T11:28:56;46.63;;;44.13;;
33644;SDS011;19986;48.190;16.366;2023-01-19T11:33:54;47.35;;;44.75;;
33644;SDS011;19986;48.190;16.366;2023-01-19T11:36:23;48.58;;;45.90;;
33644;SDS011;19986;48.190;16.366;2023-01-19T11:38:51;45.28;;;42.97;;
33644;SDS011;19986;48.190;16.366;2023-01-19T11:41:25;48.67;;;46.08;;
33644;SDS011;19986;48.190;16.366;2023-01-19T11:46:46;46.53;;;44.00;;
33644;SDS011;19986;48.190;16.366;2023-01-19T11:52:20;47.03;;;44.72;;
33644;SDS011;19986;48.190;16.366;2023-01-19T11:54:59;48.55;;;45.67;;
33644;SDS011;19986;48.190;16.366;2023-01-19T11:57:30;46.47;;;44.08;;
33644;SDS011;19986;48.190;16.366;2023-01-19T11:59:55;48.35;;;45.95;;
33644;SDS011;19986;48.190;16.366;2023-01-19T12:02:29;48.30;;;45.55;;
33644;SDS011;19986;48.190;16.366;2023-01-19T12:05:06;47.45;;;44.85;;
33644;SDS011;19986;48.190;16.366;2023-01-19T12:07:39;51.45;;;48.15;;
33644;SDS011;19986;48.190;16.366;2023-01-19T12:13:09;48.97;;;46.33;;
33644;SDS011;19986;48.190;16.366;2023-01-19T12:15:43;48.75;;;46.17;;
33644;SDS011;19986;48.190;16.366;2023-01-19T12:18:14;48.28;;;45.63;;
33644;SDS011;19986;48.190;16.366;2023-01-19T12:20:50;44.65;;;42.22;;
33644;SDS011;19986;48.190;16.366;2023-01-19T12:29:12;45.92;;;43.42;;
33644;SDS011;19986;48.190;16.366;2023-01-19T12:31:40;44.55;;;42.05;;
33644;SDS011;19986;48.190;16.366;2023-01-19T12:37:06;49.10;;;46.40;;
33644;SDS011;19986;48.190;16.366;2023-01-19T12:39:57;47.00;;;44.58;;
33644;SDS011;19986;48.190;16.366;2023-01-19T12:42:26;48.50;;;45.92;;
33644;SDS011;19986;48.190;16.366;2023-01-19T12:45:15;45.88;;;43.47;;
33644;SDS011;19986;48.190;16.366;2023-01-19T12:47:51;45.75;;;43.35;;
33644;SDS011;19986;48.190;16.366;2023-01-19T12:50:18;49.20;;;46.60;;
33644;SDS011;19986;48.190;16.366;2023-01-19T12:52:51;46.65;;;43.97;;
33644;SDS011;19986;48.190;16.366;2023-01-19T12:55:31;48.45;;;45.83;;
33644;SDS011;19986;48.190;16.366;2023-01-19T12:58:11;45.97;;;43.60;;
33644;SDS011;19986;48.190;16.366;2023-01-19T13:00:42;48.85;;;46.28;;
33644;SDS011;19986;48.190;16.366;2023-01-19T13:10:53;49.30;;;46.60;;
33644;SDS011;19986;48.190;16.366;2023-01-19T13:13:37;49.78;;;47.17;;
33644;SDS011;19986;48.190;16.366;2023-01-19T13:18:52;51.00;;;48.00;;
33644;SDS011;19986;48.190;16.366;2023-01-19T13:21:32;49.97;;;47.20;;
33644;SDS011;19986;48.190;16.366;2023-01-19T13:23:59;51.55;;;48.63;;
33644;SDS011;19986;48.190;16.366;2023-01-19T13:26:33;52.78;;;49.65;;
33644;SDS011;19986;48.190;16.366;2023-01-19T13:31:55;55.38;;;51.65;;
33644;SDS011;19986;48.190;16.366;2023-01-19T13:34:27;56.20;;;52.55;;
33644;SDS011;19986;48.190;16.366;2023-01-19T13:37:14;56.58;;;52.47;;
33644;SDS011;19986;48.190;16.366;2023-01-19T13:39:46;55.80;;;52.17;;
33644;SDS011;19986;48.190;16.366;2023-01-19T13:42:16;54.95;;;51.25;;
33644;SDS011;19986;48.190;16.366;2023-01-19T13:44:46;58.78;;;55.03;;
33644;SDS011;19986;48.190;16.366;2023-01-19T13:47:20;56.60;;;52.80;;
33644;SDS011;19986;48.190;16.366;2023-01-19T13:49:54;55.78;;;51.55;;
33644;SDS011;19986;48.190;16.366;2023-01-19T13:52:23;55.00;;;51.25;;
33644;SDS011;19986;48.190;16.366;2023-01-19T13:54:57;57.17;;;53.17;;
33644;SDS011;19986;48.190;16.366;2023-01-19T14:02:39;55.53;;;52.00;;
33644;SDS011;19986;48.190;16.366;2023-01-19T14:05:13;56.33;;;52.60;;
33644;SDS011;19986;48.190;16.366;2023-01-19T14:07:40;53.63;;;50.13;;
33644;SDS011;19986;48.190;16.366;2023-01-19T14:10:09;54.35;;;50.70;;
33644;SDS011;19986;48.190;16.366;2023-01-19T14:12:38;58.20;;;54.30;;
33644;SDS011;19986;48.190;16.366;2023-01-19T14:15:05;54.47;;;50.88;;
33644;SDS011;19986;48.190;16.366;2023-01-19T14:17:38;56.17;;;52.58;;
33644;SDS011;19986;48.190;16.366;2023-01-19T14:20:26;58.92;;;54.97;;
33644;SDS011;19986;48.190;16.366;2023-01-19T14:22:53;55.92;;;52.33;;
33644;SDS011;19986;48.190;16.366;2023-01-19T14:25:42;55.58;;;51.80;;
33644;SDS011;19986;48.190;16.366;2023-01-19T14:33:42;55.22;;;51.33;;
33644;SDS011;19986;48.190;16.366;2023-01-19T14:38:58;57.38;;;53.33;;
33644;SDS011;19986;48.190;16.366;2023-01-19T14:41:28;53.33;;;49.70;;
33644;SDS011;19986;48.190;16.366;2023-01-19T14:44:18;57.20;;;53.25;;
33644;SDS011;19986;48.190;16.366;2023-01-19T14:46:59;57.60;;;53.63;;
33644;SDS011;19986;48.190;16.366;2023-01-19T14:49:29;57.97;;;54.00;;
33644;SDS011;19986;48.190;16.366;2023-01-19T14:52:00;59.58;;;55.33;;
33644;SDS011;19986;48.190;16.366;2023-01-19T14:54:38;56.22;;;52.33;;
33644;SDS011;19986;48.190;16.366;2023-01-19T14:57:09;57.15;;;53.33;;
33644;SDS011;19986;48.190;16.366;2023-01-19T14:59:37;61.15;;;56.95;;
33644;SDS011;19986;48.190;16.366;2023-01-19T15:02:03;57.95;;;54.20;;
33644;SDS011;19986;48.190;16.366;2023-01-19T15:04:29;60.03;;;55.80;;
33644;SDS011;19986;48.190;16.366;2023-01-19T15:06:54;59.00;;;54.85;;
33644;SDS011;19986;48.190;16.366;2023-01-19T15:09:20;59.50;;;55.58;;
33644;SDS011;19986;48.190;16.366;2023-01-19T15:11:47;57.60;;;53.50;;
33644;SDS011;19986;48.190;16.366;2023-01-19T15:14:14;56.88;;;52.88;;
33644;SDS011;19986;48.190;16.366;2023-01-19T15:16:42;59.58;;;55.60;;
33644;SDS011;19986;48.190;16.366;2023-01-19T15:19:09;57.22;;;53.42;;
33644;SDS011;19986;48.190;16.366;2023-01-19T15:21:36;57.83;;;53.78;;
33644;SDS011;19986;48.190;16.366;2023-01-19T15:24:08;54.65;;;50.85;;
33644;SDS011;19986;48.190;16.366;2023-01-19T15:26:40;56.70;;;52.85;;
33644;SDS011;19986;48.190;16.366;2023-01-19T15:29:15;57.97;;;54.05;;
33644;SDS011;19986;48.190;16.366;2023-01-19T15:31:45;57.30;;;53.50;;
33644;SDS011;19986;48.190;16.366;2023-01-19T15:34:11;57.83;;;53.45;;
33644;SDS011;19986;48.190;16.366;2023-01-19T15:36:39;60.55;;;56.47;;
33644;SDS011;19986;48.190;16.366;2023-01-19T15:39:05;58.72;;;54.63;;
33644;SDS011;19986;48.190;16.366;2023-01-19T15:41:31;58.20;;;53.97;;
33644;SDS011;19986;48.190;16.366;2023-01-19T15:43:57;57.88;;;53.80;;
33644;SDS011;19986;48.190;16.366;2023-01-19T15:46:23;57.22;;;53.00;;
33644;SDS011;19986;48.190;16.366;2023-01-19T15:48:50;60.67;;;56.20;;
33644;SDS011;19986;48.190;16.366;2023-01-19T15:51:18;58.72;;;54.70;;
33644;SDS011;19986;48.190;16.366;2023-01-19T15:53:45;58.88;;;54.97;;
33644;SDS011;19986;48.190;16.366;2023-01-19T15:56:16;60.72;;;56.42;;
33644;SDS011;19986;48.190;16.366;2023-01-19T15:58:45;54.72;;;50.85;;
33644;SDS011;19986;48.190;16.366;2023-01-19T16:01:12;56.20;;;52.47;;
33644;SDS011;19986;48.190;16.366;2023-01-19T16:03:43;60.03;;;56.00;;
33644;SDS011;19986;48.190;16.366;2023-01-19T16:06:10;58.53;;;54.25;;
33644;SDS011;19986;48.190;16.366;2023-01-19T16:08:37;58.83;;;54.90;;
33644;SDS011;19986;48.190;16.366;2023-01-19T16:11:07;57.85;;;53.55;;
33644;SDS011;19986;48.190;16.366;2023-01-19T16:13:37;59.40;;;55.25;;
33644;SDS011;19986;48.190;16.366;2023-01-19T16:16:04;61.15;;;56.55;;
33644;SDS011;19986;48.190;16.366;2023-01-19T16:18:32;56.63;;;52.60;;
33644;SDS011;19986;48.190;16.366;2023-01-19T16:20:59;56.72;;;52.70;;
33644;SDS011;19986;48.190;16.366;2023-01-19T16:23:25;57.58;;;53.33;;
33644;SDS011;19986;48.190;16.366;2023-01-19T16:25:59;58.85;;;54.78;;
33644;SDS011;19986;48.190;16.366;2023-01-19T16:28:29;59.33;;;54.92;;
33644;SDS011;19986;48.190;16.366;2023-01-19T16:30:56;60.80;;;56.42;;
33644;SDS011;19986;48.190;16.366;2023-01-19T16:33:22;58.95;;;54.85;;
33644;SDS011;19986;48.190;16.366;2023-01-19T16:35:48;60.85;;;56.28;;
33644;SDS011;19986;48.190;16.366;2023-01-19T16:38:14;56.10;;;52.15;;
33644;SDS011;19986;48.190;16.366;2023-01-19T16:40:42;54.95;;;51.00;;
33644;SDS011;19986;48.190;16.366;2023-01-19T16:43:10;57.50;;;53.63;;
33644;SDS011;19986;48.190;16.366;2023-01-19T16:48:26;55.65;;;51.85;;
33644;SDS011;19986;48.190;16.366;2023-01-19T16:50:56;60.50;;;56.20;;
33644;SDS011;19986;48.190;16.366;2023-01-19T16:53:23;55.63;;;51.95;;
33644;SDS011;19986;48.190;16.366;2023-01-19T16:55:49;54.50;;;50.97;;
33644;SDS011;19986;48.190;16.366;2023-01-19T16:58:17;58.60;;;54.80;;
33644;SDS011;19986;48.190;16.366;2023-01-19T17:00:44;57.40;;;53.70;;
33644;SDS011;19986;48.190;16.366;2023-01-19T17:03:11;77.32;;;70.20;;
33644;SDS011;19986;48.190;16.366;2023-01-19T17:05:38;60.90;;;56.70;;
33644;SDS011;19986;48.190;16.366;2023-01-19T17:08:04;57.33;;;53.63;;
33644;SDS011;19986;48.190;16.366;2023-01-19T17:10:34;58.65;;;54.75;;
33644;SDS011;19986;48.190;16.366;2023-01-19T17:13:00;57.45;;;53.55;;
33644;SDS011;19986;48.190;16.366;2023-01-19T17:15:29;56.17;;;52.58;;
33644;SDS011;19986;48.190;16.366;2023-01-19T17:17:55;58.33;;;54.45;;
33644;SDS011;19986;48.190;16.366;2023-01-19T17:20:21;55.95;;;52.25;;
33644;SDS011;19986;48.190;16.366;2023-01-19T17:22:47;57.08;;;53.35;;
33644;SDS011;19986;48.190;16.366;2023-01-19T17:25:13;55.67;;;51.75;;
33644;SDS011;19986;48.190;16.366;2023-01-19T17:27:39;54.97;;;51.38;;
33644;SDS011;19986;48.190;16.366;2023-01-19T17:30:06;56.28;;;52.75;;
33644;SDS011;19986;48.190;16.366;2023-01-19T17:32:32;56.88;;;53.03;;
33644;SDS011;19986;48.190;16.366;2023-01-19T17:34:58;58.03;;;54.33;;
33644;SDS011;19986;48.190;16.366;2023-01-19T17:37:24;57.97;;;54.15;;
33644;SDS011;19986;48.190;16.366;2023-01-19T17:39:51;58.55;;;54.78;;
33644;SDS011;19986;48.190;16.366;2023-01-19T17:42:18;59.53;;;55.42;;
33644;SDS011;19986;48.190;16.366;2023-01-19T17:44:45;57.22;;;53.10;;
33644;SDS011;19986;48.190;16.366;2023-01-19T17:47:10;56.15;;;52.50;;
33644;SDS011;19986;48.190;16.366;2023-01-19T17:49:37;56.25;;;52.45;;
33644;SDS011;19986;48.190;16.366;2023-01-19T17:52:05;54.70;;;51.03;;
33644;SDS011;19986;48.190;16.366;2023-01-19T17:54:32;57.95;;;54.15;;
33644;SDS011;19986;48.190;16.366;2023-01-19T17:56:58;59.42;;;55.33;;
33644;SDS011;19986;48.190;16.366;2023-01-19T17:59:24;57.85;;;53.92;;
33644;SDS011;19986;48.190;16.366;2023-01-19T18:01:51;57.00;;;53.17;;
33644;SDS011;19986;48.190;16.366;2023-01-19T18:04:17;57.60;;;53.85;;
33644;SDS011;19986;48.190;16.366;2023-01-19T18:06:43;59.88;;;55.75;;
33644;SDS011;19986;48.190;16.366;2023-01-19T18:09:16;59.17;;;55.20;;
33644;SDS011;19986;48.190;16.366;2023-01-19T18:11:43;58.15;;;54.35;;
33644;SDS011;19986;48.190;16.366;2023-01-19T18:14:09;58.15;;;54.28;;
33644;SDS011;19986;48.190;16.366;2023-01-19T18:16:37;56.88;;;53.28;;
33644;SDS011;19986;48.190;16.366;2023-01-19T18:19:03;59.65;;;55.65;;
33644;SDS011;19986;48.190;16.366;2023-01-19T18:21:29;58.63;;;54.67;;
33644;SDS011;19986;48.190;16.366;2023-01-19T18:23:59;57.80;;;53.95;;
33644;SDS011;19986;48.190;16.366;2023-01-19T18:26:27;57.75;;;53.55;;
33644;SDS011;19986;48.190;16.366;2023-01-19T18:28:55;57.38;;;53.47;;
33644;SDS011;19986;48.190;16.366;2023-01-19T18:31:22;57.33;;;53.42;;
33644;SDS011;19986;48.190;16.366;2023-01-19T18:33:48;59.08;;;55.38;;
33644;SDS011;19986;48.190;16.366;2023-01-19T18:36:15;57.60;;;54.05;;
33644;SDS011;19986;48.190;16.366;2023-01-19T18:38:42;56.58;;;52.75;;
33644;SDS011;19986;48.190;16.366;2023-01-19T18:41:13;58.60;;;54.88;;
33644;SDS011;19986;48.190;16.366;2023-01-19T18:43:42;56.42;;;52.38;;
33644;SDS011;19986;48.190;16.366;2023-01-19T18:46:09;59.55;;;55.70;;
33644;SDS011;19986;48.190;16.366;2023-01-19T18:48:36;57.13;;;53.33;;
33644;SDS011;19986;48.190;16.366;2023-01-19T18:51:04;57.47;;;53.47;;
33644;SDS011;19986;48.190;16.366;2023-01-19T18:53:31;58.85;;;54.92;;
33644;SDS011;19986;48.190;16.366;2023-01-19T18:55:58;53.70;;;50.30;;
33644;SDS011;19986;48.190;16.366;2023-01-19T18:58:26;53.20;;;49.60;;
33644;SDS011;19986;48.190;16.366;2023-01-19T19:00:57;57.80;;;53.95;;
33644;SDS011;19986;48.190;16.366;2023-01-19T19:03:25;55.75;;;51.92;;
33644;SDS011;19986;48.190;16.366;2023-01-19T19:05:51;54.30;;;50.80;;
33644;SDS011;19986;48.190;16.366;2023-01-19T19:08:17;58.60;;;54.85;;
33644;SDS011;19986;48.190;16.366;2023-01-19T19:10:45;56.58;;;52.85;;
33644;SDS011;19986;48.190;16.366;2023-01-19T19:13:12;57.10;;;53.20;;
33644;SDS011;19986;48.190;16.366;2023-01-19T19:15:41;56.03;;;52.33;;
33644;SDS011;19986;48.190;16.366;2023-01-19T19:18:08;56.88;;;53.10;;
33644;SDS011;19986;48.190;16.366;2023-01-19T19:20:39;59.85;;;55.45;;
33644;SDS011;19986;48.190;16.366;2023-01-19T19:23:09;57.03;;;52.97;;
33644;SDS011;19986;48.190;16.366;2023-01-19T19:25:36;55.35;;;51.45;;
33644;SDS011;19986;48.190;16.366;2023-01-19T19:28:03;57.80;;;54.03;;
33644;SDS011;19986;48.190;16.366;2023-01-19T19:30:32;55.15;;;51.20;;
33644;SDS011;19986;48.190;16.366;2023-01-19T19:33:01;60.67;;;56.65;;
33644;SDS011;19986;48.190;16.366;2023-01-19T19:35:28;57.60;;;53.60;;
33644;SDS011;19986;48.190;16.366;2023-01-19T19:37:57;54.38;;;50.67;;
33644;SDS011;19986;48.190;16.366;2023-01-19T19:40:24;55.47;;;51.72;;
33644;SDS011;19986;48.190;16.366;2023-01-19T19:42:53;55.35;;;51.45;;
33644;SDS011;19986;48.190;16.366;2023-01-19T19:45:19;55.00;;;51.30;;
33644;SDS011;19986;48.190;16.366;2023-01-19T19:47:46;57.83;;;53.95;;
33644;SDS011;19986;48.190;16.366;2023-01-19T19:50:12;57.67;;;53.97;;
33644;SDS011;19986;48.190;16.366;2023-01-19T19:52:41;59.53;;;55.67;;
33644;SDS011;19986;48.190;16.366;2023-01-19T19:55:08;59.90;;;55.92;;
33644;SDS011;19986;48.190;16.366;2023-01-19T19:57:35;60.20;;;56.10;;
33644;SDS011;19986;48.190;16.366;2023-01-19T20:00:02;56.97;;;53.22;;
33644;SDS011;19986;48.190;16.366;2023-01-19T20:02:29;57.28;;;53.35;;
33644;SDS011;19986;48.190;16.366;2023-01-19T20:04:56;58.75;;;55.03;;
33644;SDS011;19986;48.190;16.366;2023-01-19T20:07:22;59.05;;;55.15;;
33644;SDS011;19986;48.190;16.366;2023-01-19T20:09:49;58.75;;;54.83;;
33644;SDS011;19986;48.190;16.366;2023-01-19T20:12:17;56.33;;;52.72;;
33644;SDS011;19986;48.190;16.366;2023-01-19T20:14:45;57.63;;;53.75;;
33644;SDS011;19986;48.190;16.366;2023-01-19T20:17:11;57.83;;;54.13;;
33644;SDS011;19986;48.190;16.366;2023-01-19T20:19:37;55.47;;;51.67;;
33644;SDS011;19986;48.190;16.366;2023-01-19T20:22:22;59.38;;;55.42;;
33644;SDS011;19986;48.190;16.366;2023-01-19T20:24:58;56.92;;;53.28;;
33644;SDS011;19986;48.190;16.366;2023-01-19T20:27:25;59.28;;;55.30;;
33644;SDS011;19986;48.190;16.366;2023-01-19T20:29:51;60.25;;;55.92;;
33644;SDS011;19986;48.190;16.366;2023-01-19T20:32:22;55.78;;;52.08;;
33644;SDS011;19986;48.190;16.366;2023-01-19T20:34:49;57.10;;;53.40;;
33644;SDS011;19986;48.190;16.366;2023-01-19T20:37:15;59.00;;;55.10;;